< Typhoon 197719 1977 Season Typhoon 197721 >
Typhoon 197720 (LUCY)
General InformationTrack Information on Google MapsDetailed Wind Information || Disaster Info.ResourceGoogle EarthGE AnimationAtom FeedGeoJSON
Detalied Best Track (Time Zone = UTC)
Year Month Day Hour Lat. Long. Pressure (hPa) Wind (kt) Class Image Chart
1977 11 28 00 6.4 161.0 998 0 2 -- Chart
1977 11 28 06 6.7 159.9 998 0 2 -- Chart
1977 11 28 12 6.3 158.5 998 0 2 -- Chart
1977 11 28 18 6.2 157.7 998 0 2 -- Chart
1977 11 29 00 6.0 156.5 998 0 2 -- Chart
1977 11 29 06 6.4 155.1 998 0 2 -- Chart
1977 11 29 12 6.8 153.8 998 0 2 -- Chart
1977 11 29 18 7.2 152.5 998 0 2 -- Chart
1977 11 30 00 7.3 150.8 998 0 2 -- Chart
1977 11 30 06 7.4 149.0 1000 0 2 -- Chart
1977 11 30 12 7.4 147.5 1000 0 2 -- Chart
1977 11 30 18 7.5 146.0 1000 0 2 -- Chart
1977 12 1 00 7.9 143.3 1000 0 2 -- Chart
1977 12 1 06 8.7 140.4 996 40 3 -- Chart
1977 12 1 12 9.8 138.6 992 45 3 -- Chart
1977 12 1 18 10.8 137.2 985 50 4 -- Chart
1977 12 2 00 11.4 135.7 985 50 4 -- Chart
1977 12 2 06 11.5 134.3 975 55 4 -- Chart
1977 12 2 12 11.9 133.3 965 55 4 -- Chart
1977 12 2 18 12.3 132.5 955 60 4 -- Chart
1977 12 3 00 12.8 131.4 945 75 5 -- Chart
1977 12 3 06 13.1 130.5 927 90 5 -- Chart
1977 12 3 12 13.5 129.8 920 90 5 -- Chart
1977 12 3 18 14.0 129.2 920 110 5 -- Chart
1977 12 4 00 14.5 128.8 925 110 5 -- Chart
1977 12 4 06 15.4 128.5 930 90 5 -- Chart
1977 12 4 12 16.7 128.6 935 90 5 -- Chart
1977 12 4 18 17.9 128.9 940 90 5 -- Chart
1977 12 5 00 18.9 129.9 940 90 5 -- Chart
1977 12 5 06 20.0 131.0 950 90 5 -- Chart
1977 12 5 12 20.7 132.6 955 85 5 -- Chart
1977 12 5 18 21.3 134.2 965 80 5 -- Chart
1977 12 6 00 21.9 136.0 975 80 5 -- Chart
1977 12 6 06 22.5 137.9 980 70 5 -- Chart
1977 12 6 12 22.5 140.2 985 70 5 -- Chart
1977 12 6 18 22.8 142.6 990 55 4 -- Chart
1977 12 7 00 22.8 144.8 995 45 3 -- Chart
1977 12 7 06 22.5 146.9 995 45 3 -- Chart
1977 12 7 12 22.5 148.9 996 45 3 -- Chart
1977 12 7 18 22.4 150.7 996 45 3 -- Chart
1977 12 8 00 22.6 152.6 996 45 3 -- Chart
1977 12 8 06 23.0 154.5 996 45 3 -- Chart
1977 12 8 12 24.0 155.9 1000 40 3 -- Chart
1977 12 8 18 25.0 157.0 1000 40 3 -- Chart
1977 12 9 00 26.0 158.1 1004 0 6 -- Chart
1977 12 9 06 26.5 160.8 1004 0 6 -- Chart
1977 12 9 12 27.3 165.5 1004 0 6 -- Chart
Japan Meteorological Agency Best Track Data | Correction Date : 1992-10-21
< Typhoon 197719 1977 Season Typhoon 197721 >

Help